首页
METAR-TAF:

METAR-TAF

机场 :

奥古斯塔, 喬治亞, 美国

纬度: 33-21-52N, 经度: 081-57-48W, 海拔: 44米

当前天气观测

该预报发布于39分钟前的04:53 UTC
风速5节,风向东南
温度 19°C
湿度 94%
气压 1013 hPa
能見度: 9.7公里
散云层高于500英尺
阴天层高于2800英尺
小雨, 轻雾

METAR: KAGS 160453Z AUTO 14005KT 6SM -RA BR SCT005 OVC028 19/18 A2992 RMK AO2 SLP130 P0001 T01940178 402110150

时间: 01:32 (05:32 UTC)

预报

该预报发布于1小时和15分钟前的04:17 UTC
预报有效从16日的 04点(UTC)到 16日的 24点(UTC)
风速6节,风向南转南东
能見度: 6.4公里
阴天层高于400英尺
小雨, 轻雾
从 16日的 0700点(UTC)
风速4节,风向多变
能見度: 3.2公里
阴天层高于400英尺
雨, 轻雾
从 16日的 1400点(UTC)
风速8节,风向西
能見度: 10公里
阴天层高于1200英尺
附近有阵雨
从 16日的 1800点(UTC)
风速14节,风向西转西北,有时为23节阵风
能見度: 10公里
多云层高于3500英尺
附近有阵雨

TAF: KAGS 160417Z 1604/1624 16006KT 4SM -RA BR OVC004 FM160700 VRB04KT 2SM RA BR OVC004 FM161400 26008KT P6SM VCSH OVC012 FM161800 29014G23KT P6SM VCSH BKN035

超过4000个机场的气象观测和天气预报(METAR&TAF报告)。

可查询的气象台以黄色和红色小点在地图上表示。

将鼠标移到小点上方,可查看气象台名称。

然后点击查看天气观测和预报。

如需切换地图:点击带黑十字的绿色按钮放大地图;点击带横线的绿色按钮缩小地图;或者点击绿色箭头查看邻近地区的地图。


METAR-TAF: